Time;durP1;ratioP1;P1;durP2;ratioP2;P2;SDS_P1;SDS_P2;PMS_P1;PMS_P2;Temp;Humidity;BMP_temperature;BMP_pressure;BME280_temperature;BME280_humidity;BME280_pressure;Samples;Min_cycle;Max_cycle;Signal;HPM_P1;HPM_P2
2022/07/27 00:01:27;;;;;;;;;;;;;;;22.72;48.67;101884.75;7296693;19;153528;-62
2022/07/27 00:03:54;;;;;;;;;;;;;;;22.72;48.91;101894.06;7283002;19;154151;-62
2022/07/27 00:06:20;;;;;;;;;;;;;;;22.71;48.76;101886.75;7288311;19;152498;-62
2022/07/27 00:08:47;;;;;;;;;;;;;;;22.68;48.84;101884.50;7287231;19;153691;-62
2022/07/27 00:11:14;;;;;;;;;;;;;;;22.71;48.83;101886.75;7288540;19;153662;-62
2022/07/27 00:13:40;;;;;;;;;;;;;;;22.70;48.70;101890.72;7287646;19;153556;-62
2022/07/27 00:16:07;;;;;;;;;;;;;;;22.65;48.88;101890.75;7288806;19;152969;-62
2022/07/27 00:18:34;;;;;;;;;;;;;;;22.65;48.92;101890.75;7284814;19;153792;-62
2022/07/27 00:21:01;;;;;;;;;;;;;;;22.60;48.79;101886.00;7287408;19;152647;-62
2022/07/27 00:23:27;;;;;;;;;;;;;;;22.65;48.54;101881.44;7293171;19;152894;-62
2022/07/27 00:25:54;;;;;;;;;;;;;;;22.65;48.27;101879.47;7288718;19;151770;-63
2022/07/27 00:28:21;;;;;;;;;;;;;;;22.67;48.52;101876.38;7285463;19;152510;-62
2022/07/27 00:30:47;;;;;;;;;;;;;;;22.58;48.51;101874.19;7284658;19;154302;-62
2022/07/27 00:33:14;;;;;;;;;;;;;;;22.61;48.39;101867.97;7286731;19;152160;-62
2022/07/27 00:35:42;;;;;;;;;;;;;;;22.60;48.44;101866.28;7283347;19;152290;-62
2022/07/27 00:38:09;;;;;;;;;;;;;;;22.57;48.15;101863.25;7285757;19;152619;-62
2022/07/27 00:40:36;;;;;;;;;;;;;;;22.67;48.32;101865.91;7286654;19;153237;-62
2022/07/27 00:43:03;;;;;;;;;;;;;;;22.69;47.96;101868.44;7287896;19;153471;-62
2022/07/27 00:45:29;;;;;;;;;;;;;;;22.60;47.94;101869.09;7293697;19;153979;-63
2022/07/27 00:47:56;;;;;;;;;;;;;;;22.59;48.16;101861.78;7288368;19;152618;-62
2022/07/27 00:50:23;;;;;;;;;;;;;;;22.63;47.79;101867.66;7282756;19;153521;-62
2022/07/27 00:52:50;;;;;;;;;;;;;;;22.62;47.95;101858.34;7286492;19;152801;-62
2022/07/27 00:55:16;;;;;;;;;;;;;;;22.64;48.22;101863.69;7284318;19;153871;-62
2022/07/27 00:57:43;;;;;;;;;;;;;;;22.63;48.11;101865.69;7285814;19;154438;-62
2022/07/27 01:00:25;;;;;;;;;;;;;;;22.63;47.91;101870.47;7287546;19;151974;-62
2022/07/27 01:02:52;;;;;;;;;;;;;;;22.65;47.70;101867.34;7286889;19;153343;-62
2022/07/27 01:05:19;;;;;;;;;;;;;;;22.60;47.87;101862.63;7282883;19;154151;-62
2022/07/27 01:07:47;;;;;;;;;;;;;;;22.55;47.82;101866.34;7293363;19;151825;-62
2022/07/27 01:10:15;;;;;;;;;;;;;;;22.59;47.78;101861.78;7283878;19;154052;-63
2022/07/27 01:12:43;;;;;;;;;;;;;;;22.56;48.22;101862.41;7288005;19;152190;-62
2022/07/27 01:15:11;;;;;;;;;;;;;;;22.63;47.83;101862.00;7285848;19;154202;-62
2022/07/27 01:17:37;;;;;;;;;;;;;;;22.54;48.14;101858.19;7285367;19;152220;-62
2022/07/27 01:20:05;;;;;;;;;;;;;;;22.62;47.81;101849.91;7282519;19;152318;-62
2022/07/27 01:22:31;;;;;;;;;;;;;;;22.56;48.07;101859.56;7283983;19;152574;-62
2022/07/27 01:24:58;;;;;;;;;;;;;;;22.53;47.70;101848.88;7283639;19;153190;-62
2022/07/27 01:27:25;;;;;;;;;;;;;;;22.53;47.81;101856.53;7286903;19;152094;-62
2022/07/27 01:29:53;;;;;;;;;;;;;;;22.57;47.77;101852.81;7292475;19;153349;-62
2022/07/27 01:32:20;;;;;;;;;;;;;;;22.54;47.79;101855.38;7286954;19;153272;-63
2022/07/27 01:34:46;;;;;;;;;;;;;;;22.54;47.98;101859.03;7280946;19;153204;-62
2022/07/27 01:37:13;;;;;;;;;;;;;;;22.59;47.55;101858.13;7285023;19;153857;-63
2022/07/27 01:39:40;;;;;;;;;;;;;;;22.53;47.93;101851.72;7281596;19;152426;-62
2022/07/27 01:42:06;;;;;;;;;;;;;;;22.48;48.14;101851.78;7283850;19;153307;-62
2022/07/27 01:44:33;;;;;;;;;;;;;;;22.44;48.09;101845.06;7283862;19;153430;-62
2022/07/27 01:47:00;;;;;;;;;;;;;;;22.48;48.09;101851.78;7287095;19;152066;-62
2022/07/27 01:49:39;;;;;;;;;;;;;;;22.50;48.11;101846.69;7282400;19;153596;-62
2022/07/27 01:52:05;;;;;;;;;;;;;;;22.52;47.79;101850.06;7291032;19;153271;-62
2022/07/27 01:54:32;;;;;;;;;;;;;;;22.46;48.25;101850.41;7285225;19;153519;-62
2022/07/27 01:56:59;;;;;;;;;;;;;;;22.47;47.91;101847.28;7283872;19;153022;-62
2022/07/27 01:59:25;;;;;;;;;;;;;;;22.47;48.29;101847.28;7285839;19;153650;-62
2022/07/27 02:01:52;;;;;;;;;;;;;;;22.47;48.21;101840.81;7284005;19;153352;-62
2022/07/27 02:04:19;;;;;;;;;;;;;;;22.52;48.18;101837.94;7277412;19;154493;-62
2022/07/27 02:06:46;;;;;;;;;;;;;;;22.52;47.99;101837.94;7285528;19;151825;-62
2022/07/27 02:09:12;;;;;;;;;;;;;;;22.46;48.04;101839.97;7283673;19;153158;-63
2022/07/27 02:14:25;;;;;;;;;;;;;;;22.52;47.99;101838.78;7283790;19;153309;-63
2022/07/27 02:16:53;;;;;;;;;;;;;;;22.48;47.65;101836.88;7284308;19;153453;-63
2022/07/27 02:19:20;;;;;;;;;;;;;;;22.47;47.84;101843.63;7283610;19;152387;-62
2022/07/27 02:21:47;;;;;;;;;;;;;;;22.43;48.00;101837.78;7285509;19;152589;-62
2022/07/27 02:24:14;;;;;;;;;;;;;;;22.37;48.29;101832.47;7283005;19;153646;-62
2022/07/27 02:26:40;;;;;;;;;;;;;;;22.36;47.95;101834.47;7284770;19;152558;-62
2022/07/27 02:29:09;;;;;;;;;;;;;;;22.48;47.98;101826.44;7283609;19;153504;-62
2022/07/27 02:31:36;;;;;;;;;;;;;;;22.43;47.76;101834.97;7284439;19;154240;-62
2022/07/27 02:34:03;;;;;;;;;;;;;;;22.43;48.00;101829.31;7288516;19;151964;-63
2022/07/27 02:36:30;;;;;;;;;;;;;;;22.58;47.38;101833.91;7283383;19;153626;-62
2022/07/27 02:38:57;;;;;;;;;;;;;;;22.45;47.40;101829.00;7280800;19;152055;-62
2022/07/27 02:41:23;;;;;;;;;;;;;;;22.38;47.79;101831.34;7284275;19;152028;-62
2022/07/27 02:43:50;;;;;;;;;;;;;;;22.40;47.70;101823.44;7281254;19;153934;-63
2022/07/27 02:46:17;;;;;;;;;;;;;;;22.39;47.56;101822.63;7284777;19;152360;-63
2022/07/27 02:48:44;;;;;;;;;;;;;;;22.40;47.16;101824.28;7283131;19;153818;-62
2022/07/27 02:51:11;;;;;;;;;;;;;;;22.37;47.23;101819.25;7282697;19;153682;-62
2022/07/27 02:53:37;;;;;;;;;;;;;;;22.39;47.15;101819.81;7279324;19;152327;-62
2022/07/27 02:56:04;;;;;;;;;;;;;;;22.41;47.47;101814.69;7287649;19;152925;-62
2022/07/27 02:58:31;;;;;;;;;;;;;;;22.36;47.46;101820.38;7284170;19;152129;-62
2022/07/27 03:00:58;;;;;;;;;;;;;;;22.36;47.41;101814.75;7284786;19;152978;-63
2022/07/27 03:03:25;;;;;;;;;;;;;;;22.34;47.43;101819.00;7279851;19;153777;-62
2022/07/27 03:06:02;;;;;;;;;;;;;;;22.42;46.99;101819.19;7283829;19;152369;-62
2022/07/27 03:08:28;;;;;;;;;;;;;;;22.36;47.40;101819.53;7283218;19;152949;-62
2022/07/27 03:10:55;;;;;;;;;;;;;;;22.36;46.99;101809.13;7283007;19;153101;-62
2022/07/27 03:13:22;;;;;;;;;;;;;;;22.42;47.33;101807.94;7283041;19;154533;-62
2022/07/27 03:15:49;;;;;;;;;;;;;;;22.40;46.89;101812.16;7281933;19;153682;-63
2022/07/27 03:18:15;;;;;;;;;;;;;;;22.37;47.23;101809.97;7289400;19;154004;-62
2022/07/27 03:20:42;;;;;;;;;;;;;;;22.36;47.28;101817.56;7280525;19;153210;-62
2022/07/27 03:23:09;;;;;;;;;;;;;;;22.44;46.91;101807.63;7281286;19;154193;-62
2022/07/27 03:25:36;;;;;;;;;;;;;;;22.40;46.98;101809.34;7283504;19;151702;-63
2022/07/27 03:28:02;;;;;;;;;;;;;;;22.39;46.86;101804.88;7283042;19;153791;-62
2022/07/27 03:30:34;;;;;;;;;;;;;;;22.39;46.91;101802.06;7280402;19;154396;-62
2022/07/27 03:33:01;;;;;;;;;;;;;;;22.43;46.63;101809.59;7283431;19;152491;-62
2022/07/27 03:35:27;;;;;;;;;;;;;;;22.38;46.71;101803.19;7277869;19;153443;-62
2022/07/27 03:37:54;;;;;;;;;;;;;;;22.35;47.08;101798.19;7280517;19;153118;-62
2022/07/27 03:40:21;;;;;;;;;;;;;;;22.30;46.98;101801.88;7290194;19;152729;-62
2022/07/27 03:42:48;;;;;;;;;;;;;;;22.36;47.18;101799.81;7281015;19;152621;-62
2022/07/27 03:45:14;;;;;;;;;;;;;;;22.33;47.31;101804.09;7282494;19;154716;-62
2022/07/27 03:47:41;;;;;;;;;;;;;;;22.36;47.18;101806.31;7283266;19;153376;-62
2022/07/27 03:50:08;;;;;;;;;;;;;;;22.34;47.19;101802.97;7278187;19;152887;-62
2022/07/27 03:52:35;;;;;;;;;;;;;;;22.31;47.18;101805.50;7281917;19;152500;-62
2022/07/27 03:55:01;;;;;;;;;;;;;;;22.32;46.76;101815.66;7280338;19;153513;-62
2022/07/27 03:57:28;;;;;;;;;;;;;;;22.30;47.10;101810.34;7281498;19;153514;-62
2022/07/27 03:59:55;;;;;;;;;;;;;;;22.37;46.29;101802.34;7282413;19;152541;-62
2022/07/27 04:02:22;;;;;;;;;;;;;;;22.29;46.65;101808.66;7288212;19;153860;-63
2022/07/27 04:04:49;;;;;;;;;;;;;;;22.38;46.62;101808.81;7282372;19;151836;-62
2022/07/27 04:07:16;;;;;;;;;;;;;;;22.32;46.31;101810.00;7287180;19;154662;-62
2022/07/27 04:09:43;;;;;;;;;;;;;;;22.35;46.35;101810.25;7288289;19;153937;-62
2022/07/27 04:12:13;;;;;;;;;;;;;;;22.31;46.32;101803.53;7286788;19;153851;-63
2022/07/27 04:14:42;;;;;;;;;;;;;;;22.29;46.15;101814.28;7288484;19;153844;-62
2022/07/27 04:17:09;;;;;;;;;;;;;;;22.33;46.15;101809.72;7287805;19;153207;-63
2022/07/27 04:19:36;;;;;;;;;;;;;;;22.33;45.83;101809.72;7285403;19;153629;-63
2022/07/27 04:22:03;;;;;;;;;;;;;;;22.32;46.14;101804.38;7294500;19;152651;-62
2022/07/27 04:24:30;;;;;;;;;;;;;;;22.37;45.95;101807.13;7287164;19;151882;-62
2022/07/27 04:26:57;;;;;;;;;;;;;;;22.29;46.24;101811.47;7288307;19;152522;-62
2022/07/27 04:29:24;;;;;;;;;;;;;;;22.32;46.43;101805.22;7287479;19;153177;-63
2022/07/27 04:31:51;;;;;;;;;;;;;;;22.34;46.26;101808.59;7287480;19;151942;-62
2022/07/27 04:34:19;;;;;;;;;;;;;;;22.31;46.41;101797.06;7282785;19;152722;-62
2022/07/27 04:36:48;;;;;;;;;;;;;;;22.26;46.65;101805.59;7283466;19;152488;-62
2022/07/27 04:39:15;;;;;;;;;;;;;;;22.29;46.23;101808.66;7288078;19;152383;-63
2022/07/27 04:41:42;;;;;;;;;;;;;;;22.24;46.56;101810.69;7288053;19;153382;-63
2022/07/27 04:44:09;;;;;;;;;;;;;;;22.32;46.73;101808.03;7293539;19;153957;-62
2022/07/27 04:46:36;;;;;;;;;;;;;;;22.26;46.48;101809.22;7288015;19;152731;-62
2022/07/27 04:49:03;;;;;;;;;;;;;;;22.26;46.48;101816.88;7284454;19;153366;-62
2022/07/27 04:51:30;;;;;;;;;;;;;;;22.17;46.72;101811.03;7286801;19;151968;-62
2022/07/27 04:54:00;;;;;;;;;;;;;;;22.25;46.65;101815.19;7287108;19;155973;-62
2022/07/27 04:56:27;;;;;;;;;;;;;;;22.25;46.40;101820.81;7284522;19;152956;-62
2022/07/27 04:58:54;;;;;;;;;;;;;;;22.26;46.66;101826.13;7287018;19;153366;-62
2022/07/27 05:01:22;;;;;;;;;;;;;;;22.31;46.55;101823.25;7287553;19;153330;-62
2022/07/27 05:03:49;;;;;;;;;;;;;;;22.21;46.31;101826.22;7278952;19;152749;-62
2022/07/27 05:06:16;;;;;;;;;;;;;;;22.29;46.51;101827.50;7291960;19;152078;-62
2022/07/27 05:08:43;;;;;;;;;;;;;;;22.27;46.11;101815.69;7285194;19;155535;-63
2022/07/27 05:11:09;;;;;;;;;;;;;;;22.24;46.42;101830.38;7286376;19;151988;-63
2022/07/27 05:13:38;;;;;;;;;;;;;;;22.28;46.47;101829.50;7286601;19;152382;-62
2022/07/27 05:16:12;;;;;;;;;;;;;;;22.28;46.21;101829.50;7281178;19;153130;-62
2022/07/27 05:18:45;;;;;;;;;;;;;;;22.25;46.66;101826.44;7284328;19;152316;-63
2022/07/27 05:21:12;;;;;;;;;;;;;;;22.26;46.40;101828.94;7284851;19;152756;-63
2022/07/27 05:23:38;;;;;;;;;;;;;;;22.22;46.60;101829.84;7284315;19;153039;-62
2022/07/27 05:26:05;;;;;;;;;;;;;;;22.30;46.77;101829.19;7286321;19;151812;-62
2022/07/27 05:28:32;;;;;;;;;;;;;;;22.15;46.79;101833.03;7291826;19;152547;-62
2022/07/27 05:30:59;;;;;;;;;;;;;;;22.15;47.14;101838.66;7287215;19;152157;-62
2022/07/27 05:33:25;;;;;;;;;;;;;;;22.14;47.26;101839.78;7285925;19;152959;-62
2022/07/27 05:35:54;;;;;;;;;;;;;;;22.20;47.05;101843.38;7281963;19;152364;-62
2022/07/27 05:38:21;;;;;;;;;;;;;;;22.20;46.74;101846.19;7285771;19;151987;-62
2022/07/27 05:40:47;;;;;;;;;;;;;;;22.22;46.92;101843.91;7286766;19;154028;-62
2022/07/27 05:43:14;;;;;;;;;;;;;;;22.21;46.71;101847.88;7285341;19;153824;-62
2022/07/27 05:45:41;;;;;;;;;;;;;;;22.21;46.96;101845.06;7286335;19;155221;-62
2022/07/27 05:48:13;;;;;;;;;;;;;;;22.18;46.97;101840.84;7287212;19;153396;-62
2022/07/27 05:50:41;;;;;;;;;;;;;;;22.17;46.90;101844.81;7289173;19;153755;-62
2022/07/27 05:53:08;;;;;;;;;;;;;;;22.21;46.70;101848.72;7283510;19;153633;-62
2022/07/27 05:55:35;;;;;;;;;;;;;;;22.15;46.83;101842.31;7282872;19;153967;-62
2022/07/27 05:58:01;;;;;;;;;;;;;;;22.15;47.06;101856.38;7285261;19;152002;-62
2022/07/27 06:00:28;;;;;;;;;;;;;;;22.15;46.91;101856.38;7283409;19;153366;-62
2022/07/27 06:02:55;;;;;;;;;;;;;;;22.22;47.24;101849.53;7283694;19;153255;-62
2022/07/27 06:05:22;;;;;;;;;;;;;;;22.14;46.88;101851.88;7282377;19;152610;-63
2022/07/27 06:07:58;;;;;;;;;;;;;;;22.14;47.13;101857.50;7284069;19;153730;-63
2022/07/27 06:10:27;;;;;;;;;;;;;;;22.15;47.31;101855.53;7284053;19;154205;-62
2022/07/27 06:12:55;;;;;;;;;;;;;;;22.16;46.85;101855.25;7293506;19;151877;-62
2022/07/27 06:15:22;;;;;;;;;;;;;;;22.17;47.11;101856.06;7281701;19;154108;-62
2022/07/27 06:17:51;;;;;;;;;;;;;;;22.18;47.11;101849.31;7285031;19;151808;-63
2022/07/27 06:20:19;;;;;;;;;;;;;;;22.14;46.86;101853.84;7282144;19;153049;-62
2022/07/27 06:22:47;;;;;;;;;;;;;;;22.17;47.02;101856.06;7281412;19;154357;-62
2022/07/27 06:25:14;;;;;;;;;;;;;;;22.14;47.11;101851.03;7285857;19;152351;-62
2022/07/27 06:27:41;;;;;;;;;;;;;;;22.10;47.04;101856.44;7281873;19;153366;-62
2022/07/27 06:30:08;;;;;;;;;;;;;;;22.10;47.18;101855.59;7284815;19;153382;-63
2022/07/27 06:32:35;;;;;;;;;;;;;;;22.16;46.95;101862.84;7292277;19;152604;-62
2022/07/27 06:35:04;;;;;;;;;;;;;;;22.13;47.01;101860.63;7281294;19;153724;-62
2022/07/27 06:37:31;;;;;;;;;;;;;;;22.14;47.01;101856.66;7280511;19;153541;-63
2022/07/27 06:40:02;;;;;;;;;;;;;;;22.08;47.41;101861.50;7285546;19;152831;-63
2022/07/27 06:42:29;;;;;;;;;;;;;;;22.15;46.86;101856.38;7281907;19;153444;-62
2022/07/27 06:44:56;;;;;;;;;;;;;;;22.13;47.13;101852.16;7285092;19;153841;-63
2022/07/27 06:47:23;;;;;;;;;;;;;;;22.13;46.94;101866.25;7284800;19;153346;-63
2022/07/27 06:49:54;;;;;;;;;;;;;;;22.18;47.12;101867.03;7280798;19;153939;-62
2022/07/27 06:52:21;;;;;;;;;;;;;;;22.08;47.14;101869.94;7282412;19;152807;-62
2022/07/27 06:54:48;;;;;;;;;;;;;;;22.09;47.39;101876.41;7290482;19;152949;-63
2022/07/27 06:57:15;;;;;;;;;;;;;;;22.12;47.23;101876.66;7281255;19;152320;-63
2022/07/27 06:59:42;;;;;;;;;;;;;;;22.13;47.10;101875.53;7284392;19;152963;-62
2022/07/27 07:02:09;;;;;;;;;;;;;;;22.10;47.46;101875.28;7282141;19;153077;-62
2022/07/27 07:04:36;;;;;;;;;;;;;;;22.09;47.10;101880.06;7278199;19;152209;-62
2022/07/27 07:07:03;;;;;;;;;;;;;;;22.11;47.49;101876.97;7283296;19;154078;-62
2022/07/27 07:09:33;;;;;;;;;;;;;;;22.08;47.62;101874.72;7282223;19;153961;-62
2022/07/27 07:12:01;;;;;;;;;;;;;;;22.12;47.57;101867.41;7281840;19;151850;-62
2022/07/27 07:14:28;;;;;;;;;;;;;;;22.06;47.28;101879.84;7282180;19;153622;-62
2022/07/27 07:16:54;;;;;;;;;;;;;;;22.14;47.12;101873.56;7288922;19;153127;-62
2022/07/27 07:19:21;;;;;;;;;;;;;;;22.17;47.08;101884.22;7279049;19;153664;-62
2022/07/27 07:21:48;;;;;;;;;;;;;;;22.13;47.31;101878.34;7282381;19;153406;-62
2022/07/27 07:24:15;;;;;;;;;;;;;;;22.10;47.62;101886.53;7279810;19;153090;-62
2022/07/27 07:26:43;;;;;;;;;;;;;;;22.16;47.05;101877.78;7284640;19;154089;-62
2022/07/27 07:29:10;;;;;;;;;;;;;;;22.17;47.07;101878.59;7281651;19;154766;-62
2022/07/27 07:31:38;;;;;;;;;;;;;;;22.17;47.53;101881.41;7283973;19;151486;-63
2022/07/27 07:34:05;;;;;;;;;;;;;;;22.15;47.54;101880.88;7280297;19;153112;-62
2022/07/27 07:36:32;;;;;;;;;;;;;;;22.17;47.56;101885.06;7281174;19;153234;-62
2022/07/27 07:38:59;;;;;;;;;;;;;;;22.17;47.28;101887.03;7290237;19;153401;-62
2022/07/27 07:41:26;;;;;;;;;;;;;;;22.22;47.47;101880.50;7288562;19;153924;-62
2022/07/27 07:43:53;;;;;;;;;;;;;;;22.14;47.61;101885.66;7289157;19;152378;-62
2022/07/27 07:46:21;;;;;;;;;;;;;;;22.12;47.68;101889.91;7289074;19;152524;-62
2022/07/27 07:48:47;;;;;;;;;;;;;;;22.13;47.61;101885.94;7283465;19;152432;-62
2022/07/27 07:51:14;;;;;;;;;;;;;;;22.09;47.51;101884.88;7288522;19;151868;-62
2022/07/27 07:53:41;;;;;;;;;;;;;;;22.07;47.81;101895.59;7287722;19;152909;-62
2022/07/27 07:56:09;;;;;;;;;;;;;;;22.17;47.54;101896.31;7287698;19;152899;-62
2022/07/27 07:58:36;;;;;;;;;;;;;;;22.13;47.84;101897.19;7287122;19;151984;-62
2022/07/27 08:01:02;;;;;;;;;;;;;;;22.13;47.62;101898.03;7295010;19;152441;-62
2022/07/27 08:03:29;;;;;;;;;;;;;;;22.17;47.61;101904.75;7285189;19;152317;-62
2022/07/27 08:05:57;;;;;;;;;;;;;;;22.15;47.91;101900.56;7287036;19;153719;-63
2022/07/27 08:08:29;;;;;;;;;;;;;;;22.16;47.90;101903.09;7286806;19;152657;-62
2022/07/27 08:11:00;;;;;;;;;;;;;;;22.17;47.74;101909.53;7288205;19;152728;-62
2022/07/27 08:13:27;;;;;;;;;;;;;;;22.16;47.76;101907.91;7288321;19;153197;-62
2022/07/27 08:15:54;;;;;;;;;;;;;;;22.21;47.93;101902.22;7288323;19;154490;-63
2022/07/27 08:18:23;;;;;;;;;;;;;;;22.19;47.86;101907.28;7287564;19;152586;-62
2022/07/27 08:20:51;;;;;;;;;;;;;;;22.17;48.12;101907.56;7282684;19;153648;-62
2022/07/27 08:23:18;;;;;;;;;;;;;;;22.18;47.59;101902.78;7290540;19;151660;-62
2022/07/27 08:25:45;;;;;;;;;;;;;;;22.14;48.21;101904.53;7288407;19;154574;-63
2022/07/27 08:28:17;;;;;;;;;;;;;;;22.13;47.85;101900.03;7285564;19;154733;-62
2022/07/27 08:30:48;;;;;;;;;;;;;;;22.24;47.96;101904.44;7285893;19;152890;-63
2022/07/27 08:33:15;;;;;;;;;;;;;;;22.18;48.15;101898.00;7287367;19;152704;-62
2022/07/27 08:35:43;;;;;;;;;;;;;;;22.22;48.15;101897.41;7284428;19;153384;-62
2022/07/27 08:38:18;;;;;;;;;;;;;;;22.17;47.97;101896.31;7284251;19;152614;-62
2022/07/27 08:40:47;;;;;;;;;;;;;;;22.24;48.20;101895.13;7287356;19;152921;-62
2022/07/27 08:43:14;;;;;;;;;;;;;;;22.23;48.20;101897.09;7292748;19;154887;-63
2022/07/27 08:45:54;;;;;;;;;;;;;;;22.25;47.90;101894.00;7288118;19;153536;-62
2022/07/27 08:48:23;;;;;;;;;;;;;;;22.22;48.04;101891.75;7283905;19;153869;-62
2022/07/27 08:50:50;;;;;;;;;;;;;;;22.17;47.93;101889.84;7283450;19;152747;-62
2022/07/27 08:53:17;;;;;;;;;;;;;;;22.25;48.05;101888.38;7287217;19;153701;-62
2022/07/27 08:55:45;;;;;;;;;;;;;;;22.20;47.91;101883.63;7287088;19;153884;-62
2022/07/27 08:58:17;;;;;;;;;;;;;;;22.18;48.24;101889.56;7285513;19;152320;-63
2022/07/27 09:00:48;;;;;;;;;;;;;;;22.23;48.12;101890.63;7287772;19;152959;-62
2022/07/27 09:03:17;;;;;;;;;;;;;;;22.25;47.68;101889.22;7284952;19;154160;-62
2022/07/27 09:05:47;;;;;;;;;;;;;;;22.23;47.62;101885.84;7291795;19;153513;-63
2022/07/27 09:08:22;;;;;;;;;;;;;;;22.24;47.54;101887.53;7286038;19;154142;-62
2022/07/27 09:10:51;;;;;;;;;;;;;;;22.22;47.25;101886.97;7287295;19;153144;-62
2022/07/27 09:13:25;;;;;;;;;;;;;;;22.20;47.32;101885.59;7286755;19;152671;-62
2022/07/27 09:15:53;;;;;;;;;;;;;;;22.20;47.10;101880.81;7284360;19;153547;-62
2022/07/27 09:18:40;;;;;;;;;;;;;;;22.19;47.29;101879.13;7281633;19;153372;-62
2022/07/27 09:21:13;;;;;;;;;;;;;;;22.22;47.04;101883.31;7285833;19;152824;-62
2022/07/27 09:23:41;;;;;;;;;;;;;;;22.22;47.01;101886.13;7283607;19;153781;-62
2022/07/27 09:26:09;;;;;;;;;;;;;;;22.26;47.32;101890.88;7286403;19;152244;-62
2022/07/27 09:28:56;;;;;;;;;;;;;;;22.28;47.07;101876.50;7290329;19;156069;-62
2022/07/27 09:31:23;;;;;;;;;;;;;;;22.30;46.88;101879.88;7286332;19;152183;-62
2022/07/27 09:33:55;;;;;;;;;;;;;;;22.33;47.20;101870.81;7283936;19;152980;-62
2022/07/27 09:36:23;;;;;;;;;;;;;;;22.30;46.84;101877.91;7284097;19;156302;-63
2022/07/27 09:38:51;;;;;;;;;;;;;;;22.30;47.03;101880.72;7284248;19;154948;-63
2022/07/27 09:41:25;;;;;;;;;;;;;;;22.32;46.76;101881.25;7286934;19;153603;-62
2022/07/27 09:43:54;;;;;;;;;;;;;;;22.31;46.53;101881.53;7285510;19;153380;-62
2022/07/27 09:46:42;;;;;;;;;;;;;;;22.35;46.68;101871.38;7284505;19;154779;-63
2022/07/27 09:49:24;;;;;;;;;;;;;;;22.34;46.59;101876.16;7284690;19;153771;-62
2022/07/27 09:51:52;;;;;;;;;;;;;;;22.32;46.43;101883.22;7292388;19;154567;-62
2022/07/27 09:54:27;;;;;;;;;;;;;;;22.31;46.47;101882.38;7285484;19;154035;-62
2022/07/27 09:56:59;;;;;;;;;;;;;;;22.27;46.39;101877.63;7283894;19;153720;-62
2022/07/27 09:59:27;;;;;;;;;;;;;;;22.22;46.42;101870.09;7285869;19;153040;-62
2022/07/27 10:01:55;;;;;;;;;;;;;;;22.28;46.12;101876.50;7286008;19;153841;-62
2022/07/27 10:04:23;;;;;;;;;;;;;;;22.34;46.36;101869.69;7278694;19;152747;-63
2022/07/27 10:06:50;;;;;;;;;;;;;;;22.31;46.34;101865.47;7284834;19;151718;-62
2022/07/27 10:09:38;;;;;;;;;;;;;;;22.29;46.31;101862.16;7284430;19;153172;-63
2022/07/27 10:12:05;;;;;;;;;;;;;;;22.33;46.03;101865.19;7285425;19;153319;-62
2022/07/27 10:14:32;;;;;;;;;;;;;;;22.32;46.45;101861.53;7293659;19;152563;-63
2022/07/27 10:16:59;;;;;;;;;;;;;;;22.35;46.25;101863.75;7284103;19;154662;-63
2022/07/27 10:19:29;;;;;;;;;;;;;;;22.35;46.02;101860.94;7282758;19;152339;-62
2022/07/27 10:21:56;;;;;;;;;;;;;;;22.34;45.80;101864.06;7284178;19;152185;-62
2022/07/27 10:24:35;;;;;;;;;;;;;;;22.30;46.20;101863.84;7282509;19;153666;-62
2022/07/27 10:27:21;;;;;;;;;;;;;;;22.33;46.06;101856.75;7285539;19;152787;-62
2022/07/27 10:29:49;;;;;;;;;;;;;;;22.32;46.11;101853.09;7285430;19;153331;-63
2022/07/27 10:32:23;;;;;;;;;;;;;;;22.38;45.97;101849.09;7282049;19;153185;-63
2022/07/27 10:34:50;;;;;;;;;;;;;;;22.38;46.26;101849.09;7291540;19;152423;-62
2022/07/27 10:37:28;;;;;;;;;;;;;;;22.35;46.28;101852.47;7281181;19;153478;-63
2022/07/27 10:42:49;;;;;;;;;;;;;;;22.40;45.91;101848.78;7284283;19;154257;-63
2022/07/27 10:45:20;;;;;;;;;;;;;;;22.37;45.97;101857.81;7281337;19;155254;-62
2022/07/27 10:47:49;;;;;;;;;;;;;;;22.38;45.43;101851.06;7284092;19;152729;-62
2022/07/27 10:50:16;;;;;;;;;;;;;;;22.37;45.83;101847.41;7281712;19;153721;-62
2022/07/27 10:52:49;;;;;;;;;;;;;;;22.36;45.92;101845.72;7282928;19;153036;-62
2022/07/27 10:55:28;;;;;;;;;;;;;;;22.44;45.55;101838.63;7283700;19;152112;-62
2022/07/27 10:57:55;;;;;;;;;;;;;;;22.41;45.68;101845.66;7289365;19;152845;-62
2022/07/27 11:00:41;;;;;;;;;;;;;;;22.42;45.82;101844.53;7284446;19;152111;-62
2022/07/27 11:03:08;;;;;;;;;;;;;;;22.37;46.21;101840.94;7283114;19;152962;-62
2022/07/27 11:05:35;;;;;;;;;;;;;;;22.38;45.69;101840.66;7279643;19;154050;-62
2022/07/27 11:08:26;;;;;;;;;;;;;;;22.38;46.00;101842.63;7282289;19;153241;-62
2022/07/27 11:11:14;;;;;;;;;;;;;;;22.35;45.55;101844.03;7284777;19;153638;-63
2022/07/27 11:13:41;;;;;;;;;;;;;;;22.38;45.84;101832.19;7279926;19;154941;-62
2022/07/27 11:16:09;;;;;;;;;;;;;;;22.36;45.83;101836.44;7284365;19;152877;-62
2022/07/27 11:18:53;;;;;;;;;;;;;;;22.36;45.76;101831.63;7278336;19;153171;-62
2022/07/27 11:21:23;;;;;;;;;;;;;;;22.41;45.35;101831.59;7289164;19;154179;-62
2022/07/27 11:24:10;;;;;;;;;;;;;;;22.41;45.35;101834.41;7282783;19;152966;-62
2022/07/27 11:26:40;;;;;;;;;;;;;;;22.41;45.12;101834.41;7283028;19;153788;-63
2022/07/27 11:29:08;;;;;;;;;;;;;;;22.47;45.03;101826.75;7281036;19;151921;-62
2022/07/27 11:31:36;;;;;;;;;;;;;;;22.46;45.02;101833.50;7282847;19;153275;-62
2022/07/27 11:34:27;;;;;;;;;;;;;;;22.40;45.13;101827.09;7278948;19;154136;-62
2022/07/27 11:36:57;;;;;;;;;;;;;;;22.43;45.01;101829.31;7282061;19;151646;-62
2022/07/27 11:39:24;;;;;;;;;;;;;;;22.42;45.38;101824.81;7279832;19;153630;-62
2022/07/27 11:42:11;;;;;;;;;;;;;;;22.41;45.27;101827.94;7282253;19;155011;-62
2022/07/27 11:44:49;;;;;;;;;;;;;;;22.38;45.07;101818.13;7290802;19;151998;-63
2022/07/27 11:47:17;;;;;;;;;;;;;;;22.45;45.34;101817.75;7283273;19;153374;-63
2022/07/27 11:49:44;;;;;;;;;;;;;;;22.41;45.14;101817.50;7281912;19;152459;-62
2022/07/27 11:52:11;;;;;;;;;;;;;;;22.47;44.93;101813.50;7285047;19;152359;-63
2022/07/27 11:54:39;;;;;;;;;;;;;;;22.48;45.29;101820.81;7282432;19;152814;-63
2022/07/27 11:57:17;;;;;;;;;;;;;;;22.46;45.32;101810.97;7282924;19;152271;-62
2022/07/27 11:59:45;;;;;;;;;;;;;;;22.47;45.20;101819.13;7281960;19;152466;-63
2022/07/27 12:02:13;;;;;;;;;;;;;;;22.46;45.12;101813.78;7279709;19;153363;-62
2022/07/27 12:04:44;;;;;;;;;;;;;;;22.48;45.07;101811.53;7277689;19;152346;-63
2022/07/27 12:07:13;;;;;;;;;;;;;;;22.45;45.36;101815.75;7287809;19;152968;-62
2022/07/27 12:09:45;;;;;;;;;;;;;;;22.46;45.39;101808.16;7281408;19;152165;-62
2022/07/27 12:12:14;;;;;;;;;;;;;;;22.43;45.71;101820.88;7279545;19;154076;-63
2022/07/27 12:14:55;;;;;;;;;;;;;;;22.47;45.52;101807.88;7280273;19;152512;-62
2022/07/27 12:17:27;;;;;;;;;;;;;;;22.43;45.51;101812.44;7282238;19;152168;-65
2022/07/27 12:20:00;;;;;;;;;;;;;;;22.42;45.85;101816.38;7280262;19;153644;-62
2022/07/27 12:22:34;;;;;;;;;;;;;;;22.44;45.28;101811.25;7279677;19;154659;-62
2022/07/27 12:25:07;;;;;;;;;;;;;;;22.46;45.18;101799.72;7282005;19;152731;-62
2022/07/27 12:27:52;;;;;;;;;;;;;;;22.41;45.61;101805.41;7288452;19;153246;-62
2022/07/27 12:30:43;;;;;;;;;;;;;;;22.48;45.49;101803.91;7294147;19;153028;-63
2022/07/27 12:33:23;;;;;;;;;;;;;;;22.43;45.64;101803.13;7288512;19;152430;-62
2022/07/27 12:35:51;;;;;;;;;;;;;;;22.39;45.89;101793.63;7285659;19;154052;-62
2022/07/27 12:38:21;;;;;;;;;;;;;;;22.47;45.67;101790.97;7286524;19;151999;-62
2022/07/27 12:40:52;;;;;;;;;;;;;;;22.48;45.57;101789.00;7287390;19;153348;-62
2022/07/27 12:43:26;;;;;;;;;;;;;;;22.46;45.53;101786.47;7284783;19;154334;-63